Time;durP1;ratioP1;P1;durP2;ratioP2;P2;SDS_P1;SDS_P2;PMS_P1;PMS_P2;Temp;Humidity;BMP_temperature;BMP_pressure;BME280_temperature;BME280_humidity;BME280_pressure;Samples;Min_cycle;Max_cycle;Signal;HPM_P1;HPM_P2
2022/01/19 00:00:15;;;;;;;26.95;18.52;;;4.70;99.90;;;;;;5012649;28;20178;-62
2022/01/19 00:02:40;;;;;;;25.88;17.55;;;4.80;99.90;;;;;;4978531;28;20038;-62
2022/01/19 00:05:07;;;;;;;25.42;16.98;;;4.80;99.90;;;;;;4992930;28;20045;-62
2022/01/19 00:07:33;;;;;;;27.55;16.75;;;4.80;99.90;;;;;;4992911;28;20435;-63
2022/01/19 00:10:04;;;;;;;22.67;17.08;;;4.70;99.90;;;;;;4977779;28;20120;-62
2022/01/19 00:12:32;;;;;;;21.92;15.52;;;4.70;99.90;;;;;;5006308;28;20033;-62
2022/01/19 00:14:58;;;;;;;25.08;15.60;;;4.80;99.90;;;;;;5011554;28;20042;-62
2022/01/19 00:17:24;;;;;;;23.85;16.27;;;4.50;99.90;;;;;;4988708;28;20049;-61
2022/01/19 00:19:49;;;;;;;28.05;15.30;;;4.80;99.90;;;;;;4993073;28;20507;-62
2022/01/19 00:22:15;;;;;;;28.58;16.40;;;4.80;99.90;;;;;;4993073;28;20450;-62
2022/01/19 00:24:42;;;;;;;29.90;16.40;;;4.80;99.90;;;;;;4992612;28;20054;-62
2022/01/19 00:27:07;;;;;;;28.90;15.98;;;4.80;99.90;;;;;;4992220;28;20158;-63
2022/01/19 00:29:33;;;;;;;27.25;18.55;;;5.10;99.90;;;;;;4993798;28;20145;-62
2022/01/19 00:31:59;;;;;;;31.17;17.30;;;4.70;99.90;;;;;;4992600;28;20041;-63
2022/01/19 00:34:24;;;;;;;29.45;17.58;;;5.00;99.90;;;;;;4992401;28;20120;-62
2022/01/19 00:36:50;;;;;;;29.75;17.75;;;4.80;99.90;;;;;;4992391;28;20486;-62
2022/01/19 00:39:16;;;;;;;28.45;17.88;;;4.60;99.90;;;;;;4993584;28;20046;-62
2022/01/19 00:41:41;;;;;;;25.10;17.23;;;4.90;99.90;;;;;;4991221;28;20050;-62
2022/01/19 00:44:07;;;;;;;33.58;19.08;;;4.80;99.90;;;;;;4992934;28;20049;-62
2022/01/19 00:46:32;;;;;;;33.67;20.05;;;4.60;99.90;;;;;;5003724;28;20046;-62
2022/01/19 00:48:58;;;;;;;30.67;18.80;;;4.70;99.90;;;;;;5010547;28;20100;-62
2022/01/19 00:51:24;;;;;;;35.33;22.35;;;4.40;99.90;;;;;;5012527;28;20080;-62
2022/01/19 00:53:49;;;;;;;39.75;20.08;;;4.40;99.90;;;;;;5011946;28;20478;-62
2022/01/19 00:56:15;;;;;;;29.27;17.70;;;4.40;99.90;;;;;;5011584;28;20497;-62
2022/01/19 00:58:41;;;;;;;30.60;17.83;;;4.60;99.90;;;;;;5009851;28;20128;-63
2022/01/19 01:01:06;;;;;;;34.22;21.45;;;4.60;99.90;;;;;;5011277;28;20178;-63
2022/01/19 01:03:32;;;;;;;33.90;19.67;;;4.60;99.90;;;;;;5011485;28;20073;-62
2022/01/19 01:05:57;;;;;;;36.47;20.95;;;4.40;99.90;;;;;;4995438;28;20388;-62
2022/01/19 01:08:23;;;;;;;32.03;20.33;;;4.70;99.90;;;;;;4995796;28;20052;-62
2022/01/19 01:10:49;;;;;;;31.55;19.13;;;4.60;99.90;;;;;;5011021;28;20120;-62
2022/01/19 01:15:49;;;;;;;31.67;17.55;;;4.50;99.90;;;;;;4991761;28;20136;-62
2022/01/19 01:18:19;;;;;;;35.08;20.50;;;4.50;99.90;;;;;;4991756;28;20405;-62
2022/01/19 01:20:46;;;;;;;43.55;22.65;;;4.50;99.90;;;;;;4992087;28;20108;-62
2022/01/19 01:23:12;;;;;;;36.10;24.10;;;4.50;99.90;;;;;;4975117;28;20077;-62
2022/01/19 01:25:38;;;;;;;43.08;26.10;;;4.50;99.90;;;;;;4992336;28;20077;-63
2022/01/19 01:28:06;;;;;;;43.47;25.80;;;4.50;99.90;;;;;;5001927;28;20046;-62
2022/01/19 01:30:32;;;;;;;47.58;28.23;;;4.50;99.90;;;;;;4994812;28;20049;-62
2022/01/19 01:32:58;;;;;;;49.45;29.85;;;;;;;;;;5010992;28;20610;-62
2022/01/19 01:35:24;;;;;;;45.15;26.40;;;4.50;99.90;;;;;;5011738;28;20045;-62
2022/01/19 01:37:50;;;;;;;47.58;27.73;;;4.50;99.90;;;;;;5010325;28;20084;-62
2022/01/19 01:40:15;;;;;;;48.55;27.70;;;4.50;99.90;;;;;;5009774;28;20040;-62
2022/01/19 01:42:42;;;;;;;52.33;28.25;;;4.50;99.90;;;;;;4975163;28;20061;-62
2022/01/19 01:45:14;;;;;;;49.20;28.38;;;4.50;99.90;;;;;;4991365;28;20398;-62
2022/01/19 01:47:46;;;;;;;49.33;26.10;;;4.50;99.90;;;;;;4991030;28;20049;-62
2022/01/19 01:55:24;;;;;;;48.65;25.52;;;4.50;99.90;;;;;;4995865;28;20041;-62
2022/01/19 01:57:50;;;;;;;51.38;27.42;;;4.40;99.90;;;;;;5010874;28;20478;-62
2022/01/19 02:00:22;;;;;;;46.22;27.58;;;4.20;99.90;;;;;;5012545;28;20041;-62
2022/01/19 02:02:49;;;;;;;57.70;27.15;;;4.40;99.90;;;;;;5014551;28;20050;-62
2022/01/19 02:05:16;;;;;;;54.80;28.85;;;4.40;99.90;;;;;;5010224;28;20124;-62
2022/01/19 02:23:50;;;;;;;67.55;30.98;;;4.40;99.90;;;;;;4994343;28;20095;-61
2022/01/19 02:26:27;;;;;;;69.13;30.90;;;4.30;99.90;;;;;;5000096;28;20034;-61
2022/01/19 02:29:11;;;;;;;63.97;29.75;;;4.30;99.90;;;;;;5014254;28;20049;-61
2022/01/19 02:42:40;;;;;;;70.70;34.10;;;4.30;99.90;;;;;;4993897;28;20042;-62
2022/01/19 02:50:17;;;;;;;75.72;36.70;;;4.40;99.90;;;;;;4994558;28;20092;-62
2022/01/19 02:52:43;;;;;;;71.25;35.45;;;4.90;99.90;;;;;;4994350;28;20077;-62
2022/01/19 02:55:09;;;;;;;76.55;39.13;;;4.40;99.90;;;;;;4989902;28;20045;-62
2022/01/19 02:57:36;;;;;;;72.70;36.08;;;4.50;99.90;;;;;;5014283;28;20042;-62
2022/01/19 03:11:01;;;;;;;100.28;42.92;;;4.70;99.90;;;;;;4992601;28;20072;-61
2022/01/19 03:13:27;;;;;;;90.85;42.95;;;4.70;99.90;;;;;;4993911;28;20046;-61
2022/01/19 03:15:53;;;;;;;81.35;39.63;;;4.60;99.90;;;;;;4976927;28;20049;-62
2022/01/19 03:18:18;;;;;;;94.72;44.80;;;4.60;99.90;;;;;;4993924;28;20508;-62
2022/01/19 03:20:44;;;;;;;92.90;43.58;;;4.70;99.90;;;;;;4993775;28;20124;-61
2022/01/19 03:23:16;;;;;;;88.78;40.28;;;4.70;99.90;;;;;;4993362;28;20042;-61
2022/01/19 03:25:42;;;;;;;98.90;42.00;;;4.60;99.90;;;;;;4993608;28;20045;-62
2022/01/19 03:28:07;;;;;;;97.38;43.53;;;4.80;99.90;;;;;;4993917;28;20410;-61
2022/01/19 03:30:33;;;;;;;87.57;41.88;;;4.90;99.90;;;;;;4996613;28;20045;-61
2022/01/19 03:32:59;;;;;;;108.65;42.17;;;4.80;99.90;;;;;;5013016;28;20053;-62
2022/01/19 03:35:25;;;;;;;89.70;38.92;;;4.90;99.90;;;;;;5013688;28;20134;-61
2022/01/19 03:37:51;;;;;;;91.47;37.10;;;4.60;99.90;;;;;;5012070;28;20046;-61
2022/01/19 03:40:17;;;;;;;83.50;33.70;;;4.70;99.90;;;;;;5013365;28;20547;-61
2022/01/19 03:42:43;;;;;;;76.68;34.72;;;4.30;99.90;;;;;;5013084;28;20090;-61
2022/01/19 03:45:10;;;;;;;81.78;33.83;;;4.70;99.90;;;;;;4993355;28;20443;-61
2022/01/19 03:47:42;;;;;;;70.30;29.35;;;4.60;99.90;;;;;;4993356;28;20565;-62
2022/01/19 03:50:08;;;;;;;73.47;31.95;;;4.50;99.90;;;;;;5003462;28;20053;-61
2022/01/19 03:52:34;;;;;;;71.72;29.70;;;4.50;99.90;;;;;;5012459;28;20056;-62
2022/01/19 03:55:00;;;;;;;71.93;29.23;;;4.50;99.90;;;;;;5012843;28;20041;-61
2022/01/19 03:57:26;;;;;;;89.13;31.40;;;;;;;;;;5013191;28;20099;-62
2022/01/19 03:59:52;;;;;;;84.28;31.13;;;4.50;99.90;;;;;;5011921;28;20481;-61
2022/01/19 04:02:19;;;;;;;88.47;31.65;;;4.40;99.90;;;;;;5013112;28;20037;-62
2022/01/19 04:04:53;;;;;;;91.40;29.35;;;4.00;99.90;;;;;;5012838;28;20042;-61
2022/01/19 04:07:21;;;;;;;77.38;28.67;;;4.30;99.90;;;;;;5012850;28;20111;-62
2022/01/19 04:09:46;;;;;;;70.07;30.05;;;4.30;99.90;;;;;;4996665;28;20084;-60
2022/01/19 04:12:18;;;;;;;60.03;26.92;;;4.30;99.90;;;;;;4995879;28;20069;-60
2022/01/19 04:14:44;;;;;;;64.60;26.27;;;4.30;99.90;;;;;;5012441;28;20042;-61
2022/01/19 04:17:12;;;;;;;57.38;25.73;;;4.30;99.90;;;;;;5012716;28;20034;-61
2022/01/19 04:22:08;;;;;;;62.58;24.45;;;4.30;99.90;;;;;;5012121;28;20057;-61
2022/01/19 04:24:35;;;;;;;65.63;26.85;;;4.20;99.90;;;;;;5009671;28;20116;-61
2022/01/19 04:29:51;;;;;;;74.05;29.80;;;4.50;99.90;;;;;;5012410;28;20037;-61
2022/01/19 04:32:27;;;;;;;76.47;28.92;;;4.20;99.90;;;;;;5012556;28;20120;-61
2022/01/19 04:34:53;;;;;;;68.70;28.75;;;4.20;99.90;;;;;;5011414;28;20113;-61
2022/01/19 05:06:48;;;;;;;64.40;25.73;;;4.20;99.90;;;;;;5011955;28;20053;-61
2022/01/19 05:15:00;;;;;;;49.38;24.02;;;4.10;99.90;;;;;;4987057;28;20058;-60
2022/01/19 05:17:26;;;;;;;55.53;24.33;;;4.10;99.90;;;;;;4991681;28;20489;-61
2022/01/19 05:19:52;;;;;;;60.05;23.08;;;4.10;99.90;;;;;;4991771;28;20054;-61
2022/01/19 05:22:17;;;;;;;48.72;23.20;;;4.40;99.90;;;;;;5007716;28;20049;-61
2022/01/19 05:24:43;;;;;;;55.03;24.60;;;4.10;99.90;;;;;;4995170;28;20124;-61
2022/01/19 05:27:09;;;;;;;53.78;24.60;;;4.30;99.90;;;;;;5011960;28;20041;-61
2022/01/19 05:29:35;;;;;;;57.85;31.15;;;4.10;99.90;;;;;;5010741;28;20077;-61
2022/01/19 05:32:00;;;;;;;53.65;23.67;;;4.10;99.90;;;;;;4995198;28;20190;-61
2022/01/19 05:34:26;;;;;;;54.30;23.17;;;4.10;99.90;;;;;;5011683;28;20477;-61
2022/01/19 05:36:51;;;;;;;59.45;24.20;;;4.10;99.90;;;;;;4995764;28;20049;-61
2022/01/19 05:39:17;;;;;;;47.60;23.70;;;4.10;99.90;;;;;;4992132;28;20079;-61
2022/01/19 05:41:43;;;;;;;49.55;23.40;;;4.20;99.90;;;;;;4975634;28;20034;-61
2022/01/19 05:44:08;;;;;;;53.50;22.77;;;4.20;99.90;;;;;;4974998;28;20478;-61
2022/01/19 05:46:35;;;;;;;47.20;21.80;;;4.30;99.90;;;;;;4992386;28;20199;-61
2022/01/19 05:49:03;;;;;;;52.50;23.70;;;4.20;99.90;;;;;;4996874;28;20064;-61
2022/01/19 05:51:29;;;;;;;48.83;22.55;;;4.10;99.90;;;;;;5011176;28;20094;-61
2022/01/19 05:53:55;;;;;;;47.92;24.02;;;4.10;99.90;;;;;;4994817;28;20120;-61
2022/01/19 05:56:21;;;;;;;59.22;24.58;;;4.20;99.90;;;;;;5011254;28;20041;-61
2022/01/19 05:58:46;;;;;;;53.15;24.00;;;4.20;99.90;;;;;;5009896;28;20124;-61
2022/01/19 06:01:12;;;;;;;52.92;23.48;;;4.10;99.90;;;;;;5011554;28;20042;-61
2022/01/19 06:03:37;;;;;;;41.25;21.30;;;4.00;99.90;;;;;;5011841;28;20041;-61
2022/01/19 06:06:03;;;;;;;48.17;23.15;;;4.10;99.90;;;;;;4991647;28;20124;-61
2022/01/19 06:08:40;;;;;;;41.67;21.35;;;4.10;99.90;;;;;;4991769;28;20050;-61
2022/01/19 06:11:06;;;;;;;46.85;22.70;;;3.90;99.90;;;;;;4992206;28;20053;-61
2022/01/19 06:13:31;;;;;;;39.40;20.88;;;5.90;99.90;;;;;;4990998;28;20034;-61
2022/01/19 06:15:57;;;;;;;43.13;21.63;;;4.00;99.90;;;;;;4991390;28;20049;-61
2022/01/19 06:18:23;;;;;;;47.60;21.65;;;4.10;99.90;;;;;;5004467;28;20421;-61
2022/01/19 06:20:50;;;;;;;49.78;22.05;;;5.10;99.90;;;;;;4993689;28;20037;-61
2022/01/19 06:23:15;;;;;;;48.67;23.10;;;4.10;99.90;;;;;;5011481;28;20057;-61
2022/01/19 06:25:41;;;;;;;51.90;23.55;;;4.10;99.90;;;;;;5009858;28;20557;-61
2022/01/19 06:28:07;;;;;;;46.45;24.38;;;4.10;99.90;;;;;;4994710;28;20386;-61
2022/01/19 06:30:33;;;;;;;54.17;24.48;;;4.10;99.90;;;;;;5011339;28;20037;-61
2022/01/19 06:32:59;;;;;;;46.50;22.85;;;4.20;99.90;;;;;;5009552;28;20413;-61
2022/01/19 06:35:25;;;;;;;55.38;24.65;;;5.40;99.90;;;;;;5011140;28;20052;-61
2022/01/19 06:37:50;;;;;;;51.65;24.13;;;4.10;99.90;;;;;;5010564;28;20050;-61
2022/01/19 06:40:19;;;;;;;47.15;23.80;;;4.90;99.90;;;;;;5010472;28;20064;-61
2022/01/19 06:42:45;;;;;;;48.80;24.42;;;3.90;99.90;;;;;;5010445;28;20045;-61
2022/01/19 06:45:12;;;;;;;51.92;25.02;;;4.20;99.90;;;;;;4988721;28;20401;-61
2022/01/19 06:47:39;;;;;;;48.88;24.73;;;4.50;99.90;;;;;;4994203;28;20042;-61
2022/01/19 06:50:08;;;;;;;47.95;23.70;;;4.20;99.90;;;;;;4994212;28;20084;-61
2022/01/19 06:52:35;;;;;;;46.33;23.40;;;4.20;99.90;;;;;;4982499;28;20094;-61
2022/01/19 06:55:01;;;;;;;45.55;23.70;;;4.20;99.90;;;;;;5013005;28;20412;-61
2022/01/19 06:57:27;;;;;;;45.03;24.67;;;5.50;99.90;;;;;;5013962;28;20056;-61
2022/01/19 06:59:53;;;;;;;45.08;22.17;;;4.20;99.90;;;;;;5013638;28;20042;-61
2022/01/19 07:02:18;;;;;;;54.97;23.30;;;4.40;99.90;;;;;;4997219;28;20037;-61
2022/01/19 07:04:49;;;;;;;49.95;24.15;;;4.20;99.90;;;;;;4997592;28;20033;-61
2022/01/19 07:07:19;;;;;;;46.88;24.15;;;4.30;99.90;;;;;;5008588;28;20038;-61
2022/01/19 07:09:46;;;;;;;47.78;26.23;;;5.30;99.90;;;;;;4992950;28;20049;-61
2022/01/19 07:12:12;;;;;;;44.67;23.27;;;4.30;99.90;;;;;;4994710;28;20045;-61
2022/01/19 07:14:38;;;;;;;45.30;22.13;;;4.30;99.90;;;;;;4994127;28;20176;-61
2022/01/19 07:17:03;;;;;;;47.22;23.02;;;5.90;99.90;;;;;;4993168;28;20128;-61
2022/01/19 07:19:29;;;;;;;45.35;23.52;;;4.30;99.90;;;;;;4994305;28;20042;-62
2022/01/19 07:21:56;;;;;;;54.10;25.23;;;4.30;99.90;;;;;;5006500;28;20505;-61
2022/01/19 07:24:22;;;;;;;47.20;24.15;;;4.30;99.90;;;;;;4997160;28;20053;-61
2022/01/19 07:26:47;;;;;;;50.90;24.83;;;4.30;99.90;;;;;;4997119;28;20094;-61
2022/01/19 07:29:16;;;;;;;43.65;23.23;;;4.30;99.90;;;;;;5013047;28;20493;-62
2022/01/19 07:31:42;;;;;;;58.13;26.08;;;4.30;99.90;;;;;;5013041;28;20114;-62
2022/01/19 07:34:09;;;;;;;44.55;23.10;;;4.30;99.90;;;;;;5013609;28;20049;-61
2022/01/19 07:36:35;;;;;;;50.25;23.08;;;5.20;99.90;;;;;;4996457;28;20081;-62
2022/01/19 07:39:01;;;;;;;47.20;24.67;;;4.30;99.90;;;;;;5012868;28;20061;-61
2022/01/19 07:41:27;;;;;;;43.03;24.27;;;4.20;99.90;;;;;;4996923;28;20451;-62
2022/01/19 07:43:53;;;;;;;53.40;27.05;;;4.30;99.90;;;;;;4995938;28;20038;-62
2022/01/19 07:46:18;;;;;;;52.75;27.33;;;4.40;99.90;;;;;;5013075;28;20038;-62
2022/01/19 07:48:44;;;;;;;52.70;25.77;;;4.40;99.90;;;;;;5008116;28;20054;-62
2022/01/19 07:51:10;;;;;;;48.67;24.33;;;4.40;99.90;;;;;;4992979;28;20054;-62
2022/01/19 07:53:36;;;;;;;49.00;26.45;;;4.40;99.90;;;;;;4993637;28;20077;-61
2022/01/19 07:56:05;;;;;;;49.95;24.77;;;4.40;99.90;;;;;;4976981;28;20094;-62
2022/01/19 07:58:31;;;;;;;52.45;25.70;;;4.50;99.90;;;;;;4992706;28;20054;-62
2022/01/19 08:00:57;;;;;;;53.15;26.75;;;4.40;99.90;;;;;;4993261;28;20065;-62
2022/01/19 08:03:23;;;;;;;56.25;27.33;;;4.30;99.90;;;;;;4976815;28;20072;-62
2022/01/19 08:05:49;;;;;;;54.08;28.38;;;4.50;99.90;;;;;;5003226;28;20069;-62
2022/01/19 08:08:15;;;;;;;55.67;27.17;;;4.50;99.90;;;;;;4996883;28;20052;-61
2022/01/19 08:10:42;;;;;;;51.55;24.80;;;4.10;99.90;;;;;;4990456;28;20481;-62
2022/01/19 08:13:09;;;;;;;60.97;28.92;;;4.50;99.90;;;;;;4974084;28;20080;-62
2022/01/19 08:15:35;;;;;;;47.97;25.33;;;4.30;99.90;;;;;;4986702;28;20042;-62
2022/01/19 08:18:01;;;;;;;54.10;28.05;;;4.20;99.90;;;;;;4984369;28;20363;-61
2022/01/19 08:20:27;;;;;;;52.38;26.75;;;4.30;99.90;;;;;;4974618;28;20783;-61
2022/01/19 08:22:53;;;;;;;54.17;28.05;;;4.50;99.90;;;;;;4992652;28;20125;-61
2022/01/19 08:25:19;;;;;;;49.33;26.88;;;4.40;99.90;;;;;;4985596;28;20101;-61
2022/01/19 08:27:45;;;;;;;47.35;24.95;;;4.70;99.90;;;;;;4989986;28;20098;-62
2022/01/19 08:30:12;;;;;;;59.40;27.40;;;4.70;99.90;;;;;;5002705;28;20048;-61
2022/01/19 08:32:37;;;;;;;50.72;25.65;;;4.70;99.90;;;;;;4973323;28;20501;-61
2022/01/19 08:35:05;;;;;;;49.42;25.33;;;4.90;99.90;;;;;;4986240;28;20042;-62
2022/01/19 08:37:31;;;;;;;49.15;26.45;;;4.40;99.90;;;;;;4988763;28;20045;-62
2022/01/19 08:39:57;;;;;;;43.08;25.90;;;4.30;99.90;;;;;;4958213;28;20116;-62
2022/01/19 08:42:23;;;;;;;45.45;24.13;;;5.20;99.90;;;;;;4982972;28;20083;-63
2022/01/19 08:44:49;;;;;;;48.13;25.95;;;4.60;99.90;;;;;;4982013;28;20069;-62
2022/01/19 08:47:15;;;;;;;49.63;26.38;;;4.80;99.90;;;;;;4980796;28;20152;-62
2022/01/19 08:49:41;;;;;;;53.42;26.05;;;4.90;99.90;;;;;;4967560;28;20049;-62
2022/01/19 08:52:06;;;;;;;50.15;24.85;;;4.80;99.90;;;;;;4995145;28;20482;-62
2022/01/19 08:54:33;;;;;;;49.47;26.20;;;4.90;99.90;;;;;;5000040;28;20394;-62
2022/01/19 08:57:04;;;;;;;43.80;24.67;;;4.90;99.90;;;;;;4972768;28;20046;-62
2022/01/19 08:59:30;;;;;;;52.10;24.98;;;4.70;99.90;;;;;;5002165;28;20060;-61
2022/01/19 09:01:57;;;;;;;49.60;23.80;;;5.00;99.90;;;;;;5028091;28;20128;-61
2022/01/19 09:04:23;;;;;;;41.75;23.85;;;4.90;99.90;;;;;;5003020;28;20046;-61
2022/01/19 09:06:49;;;;;;;53.20;27.00;;;4.90;99.90;;;;;;4991650;28;20129;-61
2022/01/19 09:09:14;;;;;;;50.75;27.55;;;4.90;99.90;;;;;;4993700;28;20124;-61
2022/01/19 09:11:43;;;;;;;52.53;26.02;;;4.90;99.90;;;;;;4990572;28;20038;-62
2022/01/19 09:14:10;;;;;;;53.55;26.20;;;4.90;99.90;;;;;;4960067;28;20050;-61
2022/01/19 09:16:36;;;;;;;47.53;25.05;;;;;;;;;;5003795;28;20050;-61
2022/01/19 09:19:02;;;;;;;48.22;26.23;;;;;;;;;;4975523;28;20053;-61
2022/01/19 09:21:28;;;;;;;61.05;28.67;;;;;;;;;;5043828;28;20038;-61
2022/01/19 09:23:54;;;;;;;58.40;27.05;;;;;;;;;;5072046;28;20033;-61
2022/01/19 09:26:20;;;;;;;54.88;28.02;;;;;;;;;;4989851;28;20065;-61
2022/01/19 09:28:46;;;;;;;47.03;24.92;;;;;;;;;;4978426;28;20038;-61
2022/01/19 09:31:15;;;;;;;53.75;26.13;;;;;;;;;;5005278;28;20049;-61
2022/01/19 09:33:43;;;;;;;52.45;25.92;;;;;;;;;;4975909;28;20118;-61
2022/01/19 09:36:31;;;;;;;49.25;28.58;;;;;;;;;;5008693;28;20053;-62
2022/01/19 09:38:57;;;;;;;55.90;28.15;;;;;;;;;;4994255;28;20098;-61
2022/01/19 09:41:23;;;;;;;53.63;29.15;;;;;;;;;;4993219;28;20399;-62
2022/01/19 09:43:49;;;;;;;51.42;28.80;;;;;;;;;;4996499;28;20042;-61
2022/01/19 09:46:15;;;;;;;48.13;26.98;;;;;;;;;;5009620;28;20053;-62
2022/01/19 09:48:41;;;;;;;56.97;29.48;;;;;;;;;;4983906;28;20049;-61
2022/01/19 09:51:07;;;;;;;47.85;27.10;;;5.30;99.90;;;;;;4994407;28;20049;-62
2022/01/19 09:53:33;;;;;;;62.88;32.50;;;5.20;99.90;;;;;;4966308;28;20091;-62
2022/01/19 09:56:02;;;;;;;53.03;28.17;;;5.00;99.90;;;;;;4997343;28;20049;-61
2022/01/19 09:58:28;;;;;;;52.33;27.80;;;5.20;99.90;;;;;;5010803;28;20128;-62
2022/01/19 10:00:54;;;;;;;49.67;27.63;;;4.90;99.90;;;;;;5009808;28;20137;-61
2022/01/19 10:03:25;;;;;;;53.88;29.27;;;5.50;99.90;;;;;;4992140;28;20034;-62
2022/01/19 10:06:01;;;;;;;54.85;26.80;;;5.20;99.90;;;;;;4990938;28;20056;-62
2022/01/19 10:08:36;;;;;;;56.38;27.73;;;5.30;99.90;;;;;;4993210;28;20042;-62
2022/01/19 10:11:05;;;;;;;50.47;27.33;;;5.60;99.90;;;;;;4974743;28;20033;-61
2022/01/19 10:17:04;;;;;;;58.90;31.45;;;5.30;99.90;;;;;;5010132;28;20066;-61
2022/01/19 10:19:29;;;;;;;56.47;28.20;;;5.20;99.90;;;;;;5001872;28;20030;-62
2022/01/19 10:22:04;;;;;;;52.53;27.55;;;5.30;99.90;;;;;;4995868;28;20107;-62
2022/01/19 10:24:53;;;;;;;53.92;29.30;;;5.30;99.90;;;;;;4995153;28;20486;-62
2022/01/19 10:27:22;;;;;;;60.83;29.92;;;5.30;99.90;;;;;;4978802;28;20076;-62
2022/01/19 10:30:01;;;;;;;54.63;27.33;;;5.40;99.90;;;;;;4994319;28;20042;-62
2022/01/19 10:32:27;;;;;;;53.15;28.27;;;5.40;99.90;;;;;;4978009;28;20099;-62
2022/01/19 10:34:54;;;;;;;52.63;28.17;;;5.40;99.90;;;;;;4994387;28;20443;-62
2022/01/19 10:37:25;;;;;;;59.03;28.38;;;5.40;99.90;;;;;;4978589;28;20054;-62
2022/01/19 10:39:53;;;;;;;54.05;29.50;;;5.40;99.90;;;;;;4993554;28;20046;-62
2022/01/19 10:42:27;;;;;;;54.28;27.67;;;5.40;99.90;;;;;;4978726;28;20079;-62
2022/01/19 10:44:58;;;;;;;49.03;27.55;;;5.50;99.90;;;;;;4994295;28;20494;-62
2022/01/19 10:47:39;;;;;;;58.15;29.58;;;5.80;99.90;;;;;;4993872;28;20050;-62
2022/01/19 10:50:05;;;;;;;46.17;26.02;;;5.50;99.90;;;;;;4994684;28;20087;-62
2022/01/19 10:52:40;;;;;;;54.95;28.83;;;5.50;99.90;;;;;;4994925;28;20088;-62
2022/01/19 10:55:27;;;;;;;51.85;28.35;;;5.60;99.90;;;;;;4993810;28;20090;-62
2022/01/19 10:57:55;;;;;;;51.20;26.80;;;5.60;99.90;;;;;;4993692;28;20057;-62
2022/01/19 11:00:28;;;;;;;48.53;26.27;;;5.60;99.90;;;;;;4993734;28;20044;-62
2022/01/19 11:03:12;;;;;;;49.80;25.73;;;5.90;99.90;;;;;;4994223;28;20038;-62
2022/01/19 11:05:48;;;;;;;50.10;25.58;;;5.70;99.90;;;;;;4994807;28;20038;-62
2022/01/19 11:08:19;;;;;;;47.47;26.05;;;5.80;99.90;;;;;;4977706;28;20046;-62
2022/01/19 11:10:49;;;;;;;48.97;24.85;;;5.90;99.90;;;;;;4994132;28;20054;-62
2022/01/19 11:13:28;;;;;;;39.30;21.30;;;6.00;99.90;;;;;;4994394;28;20525;-61
2022/01/19 11:15:56;;;;;;;42.85;22.60;;;6.00;99.90;;;;;;4992944;28;20057;-62
2022/01/19 11:18:25;;;;;;;50.97;24.67;;;6.10;99.90;;;;;;4978173;28;20038;-61
2022/01/19 11:20:52;;;;;;;47.08;25.55;;;6.20;99.90;;;;;;4993843;28;20482;-62
2022/01/19 11:23:36;;;;;;;41.20;22.20;;;6.30;99.90;;;;;;4977396;28;20038;-61
2022/01/19 11:26:09;;;;;;;44.45;22.73;;;6.50;99.90;;;;;;4993694;28;20064;-62
2022/01/19 11:28:51;;;;;;;43.97;22.35;;;6.80;99.90;;;;;;4993379;28;20095;-61
2022/01/19 11:31:24;;;;;;;46.90;22.45;;;6.80;99.90;;;;;;4993653;28;20040;-62
2022/01/19 11:33:52;;;;;;;39.50;21.15;;;6.60;99.90;;;;;;4994087;28;20046;-61
2022/01/19 11:36:34;;;;;;;44.83;23.17;;;6.60;99.90;;;;;;4976900;28;20090;-61
2022/01/19 11:39:08;;;;;;;37.80;23.20;;;6.60;99.90;;;;;;4993373;28;20049;-62
2022/01/19 11:41:38;;;;;;;45.80;23.20;;;6.80;99.90;;;;;;4977828;28;20073;-62
2022/01/19 11:44:05;;;;;;;49.63;26.23;;;6.40;99.90;;;;;;4993053;28;20045;-62
2022/01/19 11:46:33;;;;;;;42.05;22.90;;;6.40;99.90;;;;;;4993770;28;20092;-60
2022/01/19 11:49:01;;;;;;;40.13;24.00;;;6.40;99.90;;;;;;4992954;28;20069;-61
2022/01/19 11:51:34;;;;;;;41.35;22.40;;;6.40;99.90;;;;;;4976713;28;20049;-61
2022/01/19 11:54:06;;;;;;;45.53;23.08;;;6.30;99.90;;;;;;4993436;28;20061;-61
2022/01/19 11:56:53;;;;;;;41.78;24.75;;;6.30;99.90;;;;;;4993194;28;20125;-60
2022/01/19 11:59:18;;;;;;;48.67;24.10;;;6.30;99.90;;;;;;4993445;28;20052;-61
2022/01/19 12:01:44;;;;;;;37.83;19.92;;;6.80;99.90;;;;;;4993361;28;20042;-61
2022/01/19 12:04:14;;;;;;;35.60;19.48;;;6.30;99.90;;;;;;4992930;28;20497;-61
2022/01/19 12:06:42;;;;;;;41.47;21.00;;;6.60;99.90;;;;;;4976902;28;20042;-61
2022/01/19 12:09:09;;;;;;;31.90;16.00;;;6.20;99.90;;;;;;4993853;28;20382;-60
2022/01/19 12:11:37;;;;;;;32.28;13.73;;;6.30;99.90;;;;;;4976805;28;20046;-60
2022/01/19 12:14:35;;;;;;;22.42;12.18;;;6.30;99.90;;;;;;4993151;28;20052;-61
2022/01/19 12:17:09;;;;;;;23.23;11.05;;;6.30;99.90;;;;;;4992996;28;20087;-61
2022/01/19 12:19:43;;;;;;;17.25;8.75;;;6.40;99.90;;;;;;4992778;28;20046;-61
2022/01/19 12:22:23;;;;;;;16.45;9.75;;;6.40;99.90;;;;;;4993313;28;20049;-61
2022/01/19 12:24:57;;;;;;;20.00;9.23;;;6.40;99.90;;;;;;4992042;28;20367;-61
2022/01/19 12:27:35;;;;;;;22.08;8.07;;;6.40;99.90;;;;;;4993547;28;20099;-61
2022/01/19 12:30:12;;;;;;;22.45;8.43;;;6.40;99.90;;;;;;4976400;28;20042;-61
2022/01/19 12:32:42;;;;;;;17.35;8.18;;;6.50;99.90;;;;;;4992423;28;20045;-61
2022/01/19 12:35:34;;;;;;;17.20;7.78;;;6.60;99.90;;;;;;4976931;28;20494;-61
2022/01/19 12:38:02;;;;;;;15.43;7.85;;;6.60;99.90;;;;;;4994942;28;20141;-61
2022/01/19 12:40:36;;;;;;;24.33;8.18;;;6.70;99.90;;;;;;4975950;28;20096;-61
2022/01/19 12:43:05;;;;;;;19.95;9.00;;;6.70;99.90;;;;;;4991555;28;20045;-61
2022/01/19 12:45:32;;;;;;;18.58;8.90;;;6.80;99.90;;;;;;4992237;28;20038;-60
2022/01/19 12:47:59;;;;;;;17.10;8.65;;;7.30;99.90;;;;;;4992131;28;20045;-61
2022/01/19 12:50:27;;;;;;;24.83;8.38;;;7.00;99.90;;;;;;4992909;28;20061;-61
2022/01/19 12:53:11;;;;;;;22.63;9.27;;;6.80;99.90;;;;;;4991785;28;20140;-60
2022/01/19 12:55:39;;;;;;;18.98;7.80;;;6.90;99.90;;;;;;4992515;28;20098;-61
2022/01/19 12:58:11;;;;;;;18.70;8.13;;;7.60;99.90;;;;;;4992684;28;20559;-60
2022/01/19 13:00:37;;;;;;;15.45;7.35;;;7.40;99.90;;;;;;4991948;28;20038;-61
2022/01/19 13:03:34;;;;;;;18.52;8.13;;;7.30;99.90;;;;;;4992347;28;20053;-61
2022/01/19 13:06:06;;;;;;;18.05;7.55;;;6.80;99.90;;;;;;4996209;28;20057;-61
2022/01/19 13:08:37;;;;;;;17.70;7.55;;;6.60;99.90;;;;;;4991679;28;20042;-61
2022/01/19 13:11:21;;;;;;;25.00;8.93;;;6.70;99.90;;;;;;4992203;28;20084;-61
2022/01/19 13:14:08;;;;;;;17.92;7.18;;;6.60;99.90;;;;;;4991066;28;20688;-61
2022/01/19 13:16:37;;;;;;;16.67;8.07;;;6.60;99.90;;;;;;4992605;28;20045;-61
2022/01/19 13:19:12;;;;;;;17.50;7.85;;;6.70;99.90;;;;;;4992009;28;20050;-60
2022/01/19 13:21:39;;;;;;;21.92;7.72;;;6.70;99.90;;;;;;4991710;28;20171;-61
2022/01/19 13:24:13;;;;;;;16.52;8.10;;;6.60;99.90;;;;;;4976191;28;20049;-61
2022/01/19 13:26:47;;;;;;;18.75;8.55;;;6.50;99.90;;;;;;4992223;28;20427;-60
2022/01/19 13:29:20;;;;;;;18.48;7.90;;;6.60;99.90;;;;;;4991303;28;20549;-61
2022/01/19 13:32:13;;;;;;;24.30;8.05;;;6.50;99.90;;;;;;4991779;28;20046;-61
2022/01/19 13:34:53;;;;;;;17.90;7.47;;;6.30;99.90;;;;;;4991421;28;20094;-61
2022/01/19 13:37:19;;;;;;;20.08;9.07;;;6.40;99.90;;;;;;4975960;28;20494;-61
2022/01/19 13:39:54;;;;;;;20.85;9.07;;;6.40;99.90;;;;;;4991687;28;20041;-61
2022/01/19 13:42:40;;;;;;;22.63;8.82;;;6.40;99.90;;;;;;4991554;28;20094;-61
2022/01/19 13:45:25;;;;;;;24.63;8.68;;;6.40;99.90;;;;;;4992570;28;20042;-61
2022/01/19 13:48:03;;;;;;;18.23;8.13;;;6.40;99.90;;;;;;4990354;28;20095;-61
2022/01/19 13:50:29;;;;;;;20.52;9.23;;;6.50;99.90;;;;;;4977953;28;20371;-61
2022/01/19 13:52:54;;;;;;;20.35;8.52;;;6.00;99.90;;;;;;4964315;28;20039;-61
2022/01/19 13:55:22;;;;;;;23.25;8.43;;;6.50;99.90;;;;;;4994488;28;20072;-61
2022/01/19 13:57:48;;;;;;;19.55;8.88;;;6.60;99.90;;;;;;4976216;28;20080;-60
2022/01/19 14:00:18;;;;;;;19.10;8.82;;;6.60;99.90;;;;;;4961113;28;20081;-60
2022/01/19 14:03:02;;;;;;;22.48;9.48;;;6.40;99.90;;;;;;4989124;28;20041;-59
2022/01/19 14:05:41;;;;;;;25.58;8.07;;;6.30;99.90;;;;;;5001486;28;20059;-59
2022/01/19 14:08:08;;;;;;;22.60;9.60;;;6.40;99.90;;;;;;4995693;28;20132;-60
2022/01/19 14:10:41;;;;;;;24.88;9.70;;;6.50;99.90;;;;;;4963626;28;20054;-60
2022/01/19 14:13:30;;;;;;;24.08;8.85;;;6.50;99.90;;;;;;4994680;28;20132;-60
2022/01/19 14:16:16;;;;;;;25.48;11.05;;;6.30;99.90;;;;;;5011893;28;20048;-59
2022/01/19 14:18:42;;;;;;;23.33;8.95;;;6.20;99.90;;;;;;4993731;28;20049;-59
2022/01/19 14:21:09;;;;;;;20.63;10.68;;;6.40;99.90;;;;;;5062328;28;20194;-60
2022/01/19 14:23:36;;;;;;;21.52;11.07;;;7.00;99.90;;;;;;5078581;28;20162;-60
2022/01/19 14:26:12;;;;;;;24.48;9.57;;;6.30;99.90;;;;;;4994479;28;20042;-60